sensor_id;sensor_type;location;lat;lon;timestamp;pressure;altitude;pressure_sealevel;temperature;humidity
10652;BME280;5374;42.742;23.266;2024-03-29T00:00:08;95239.78;;;11.54;60.80
10652;BME280;5374;42.742;23.266;2024-03-29T00:02:55;95247.25;;;11.52;60.82
10652;BME280;5374;42.742;23.266;2024-03-29T00:05:41;95246.44;;;11.51;60.85
10652;BME280;5374;42.742;23.266;2024-03-29T00:08:29;95241.06;;;11.41;61.15
10652;BME280;5374;42.742;23.266;2024-03-29T00:11:15;95258.13;;;11.45;61.15
10652;BME280;5374;42.742;23.266;2024-03-29T00:14:01;95267.44;;;11.48;61.03
10652;BME280;5374;42.742;23.266;2024-03-29T00:16:47;95260.22;;;11.43;61.21
10652;BME280;5374;42.742;23.266;2024-03-29T00:19:34;95267.13;;;11.39;61.94
10652;BME280;5374;42.742;23.266;2024-03-29T00:22:20;95267.06;;;11.29;61.95
10652;BME280;5374;42.742;23.266;2024-03-29T00:25:09;95272.91;;;11.31;62.39
10652;BME280;5374;42.742;23.266;2024-03-29T00:27:55;95278.75;;;11.28;62.43
10652;BME280;5374;42.742;23.266;2024-03-29T00:30:41;95266.47;;;11.17;63.05
10652;BME280;5374;42.742;23.266;2024-03-29T00:33:27;95277.94;;;11.22;63.24
10652;BME280;5374;42.742;23.266;2024-03-29T00:36:13;95270.66;;;11.08;63.46
10652;BME280;5374;42.742;23.266;2024-03-29T00:38:59;95280.22;;;11.09;63.67
10652;BME280;5374;42.742;23.266;2024-03-29T00:41:47;95282.88;;;11.04;64.00
10652;BME280;5374;42.742;23.266;2024-03-29T00:44:33;95261.53;;;10.93;63.80
10652;BME280;5374;42.742;23.266;2024-03-29T00:47:19;95278.03;;;10.95;63.83
10652;BME280;5374;42.742;23.266;2024-03-29T00:50:05;95280.94;;;10.94;63.85
10652;BME280;5374;42.742;23.266;2024-03-29T00:52:52;95272.97;;;10.94;64.40
10652;BME280;5374;42.742;23.266;2024-03-29T00:55:38;95280.59;;;10.85;64.81
10652;BME280;5374;42.742;23.266;2024-03-29T00:58:25;95277.66;;;10.82;64.85
10652;BME280;5374;42.742;23.266;2024-03-29T01:01:11;95233.56;;;10.44;65.15
10652;BME280;5374;42.742;23.266;2024-03-29T01:03:57;95273.81;;;10.68;65.88
10652;BME280;5374;42.742;23.266;2024-03-29T01:06:44;95276.44;;;10.62;66.09
10652;BME280;5374;42.742;23.266;2024-03-29T01:09:30;95280.13;;;10.56;66.19
10652;BME280;5374;42.742;23.266;2024-03-29T01:12:16;95278.47;;;10.50;66.23
10652;BME280;5374;42.742;23.266;2024-03-29T01:15:04;95288.28;;;10.50;66.53
10652;BME280;5374;42.742;23.266;2024-03-29T01:17:50;95277.31;;;10.41;67.03
10652;BME280;5374;42.742;23.266;2024-03-29T01:20:37;95273.66;;;10.47;66.88
10652;BME280;5374;42.742;23.266;2024-03-29T01:23:23;95280.03;;;10.46;67.15
10652;BME280;5374;42.742;23.266;2024-03-29T01:26:09;95286.88;;;10.42;67.46
10652;BME280;5374;42.742;23.266;2024-03-29T01:28:56;95280.78;;;10.42;67.40
10652;BME280;5374;42.742;23.266;2024-03-29T01:31:43;95278.38;;;10.40;67.26
10652;BME280;5374;42.742;23.266;2024-03-29T01:34:29;95275.41;;;10.32;68.56
10652;BME280;5374;42.742;23.266;2024-03-29T01:37:15;95282.31;;;10.33;68.87
10652;BME280;5374;42.742;23.266;2024-03-29T01:40:02;95291.81;;;10.28;68.90
10652;BME280;5374;42.742;23.266;2024-03-29T01:42:52;95281.88;;;10.19;68.79
10652;BME280;5374;42.742;23.266;2024-03-29T01:45:39;95296.19;;;10.18;68.92
10652;BME280;5374;42.742;23.266;2024-03-29T01:48:27;95293.38;;;10.24;68.42
10652;BME280;5374;42.742;23.266;2024-03-29T01:51:16;95307.44;;;10.25;68.49
10652;BME280;5374;42.742;23.266;2024-03-29T01:54:04;95315.16;;;10.26;68.32
10652;BME280;5374;42.742;23.266;2024-03-29T01:56:51;95320.63;;;10.20;68.54
10652;BME280;5374;42.742;23.266;2024-03-29T01:59:40;95309.72;;;10.16;68.61
10652;BME280;5374;42.742;23.266;2024-03-29T02:02:27;95323.50;;;10.18;68.29
10652;BME280;5374;42.742;23.266;2024-03-29T02:05:16;95331.47;;;10.18;68.22
10652;BME280;5374;42.742;23.266;2024-03-29T02:08:05;95325.81;;;10.10;68.13
10652;BME280;5374;42.742;23.266;2024-03-29T02:10:52;95340.94;;;10.09;69.03
10652;BME280;5374;42.742;23.266;2024-03-29T02:13:39;95346.25;;;10.09;68.94
10652;BME280;5374;42.742;23.266;2024-03-29T02:16:26;95349.41;;;10.06;69.65
10652;BME280;5374;42.742;23.266;2024-03-29T02:19:15;95349.56;;;10.00;71.13
10652;BME280;5374;42.742;23.266;2024-03-29T02:22:03;95359.84;;;9.91;71.49
10652;BME280;5374;42.742;23.266;2024-03-29T02:24:54;95356.00;;;9.82;72.56
10652;BME280;5374;42.742;23.266;2024-03-29T02:27:42;95373.75;;;9.81;72.34
10652;BME280;5374;42.742;23.266;2024-03-29T02:30:30;95370.38;;;9.64;72.63
10652;BME280;5374;42.742;23.266;2024-03-29T02:33:17;95382.38;;;9.72;73.04
10652;BME280;5374;42.742;23.266;2024-03-29T02:36:05;95386.59;;;9.68;73.44
10652;BME280;5374;42.742;23.266;2024-03-29T02:38:52;95383.38;;;9.66;73.65
10652;BME280;5374;42.742;23.266;2024-03-29T02:41:40;95395.59;;;9.67;73.78
10652;BME280;5374;42.742;23.266;2024-03-29T02:44:27;95397.69;;;9.65;73.75
10652;BME280;5374;42.742;23.266;2024-03-29T02:47:15;95406.59;;;9.58;73.86
10652;BME280;5374;42.742;23.266;2024-03-29T02:50:02;95415.66;;;9.63;73.70
10652;BME280;5374;42.742;23.266;2024-03-29T02:52:49;95408.75;;;9.62;73.27
10652;BME280;5374;42.742;23.266;2024-03-29T02:55:36;95412.38;;;9.55;72.88
10652;BME280;5374;42.742;23.266;2024-03-29T02:58:24;95404.75;;;9.59;72.77
10652;BME280;5374;42.742;23.266;2024-03-29T03:01:11;95414.16;;;9.67;72.55
10652;BME280;5374;42.742;23.266;2024-03-29T03:03:58;95410.63;;;9.61;72.56
10652;BME280;5374;42.742;23.266;2024-03-29T03:06:46;95424.19;;;9.65;73.18
10652;BME280;5374;42.742;23.266;2024-03-29T03:09:32;95434.06;;;9.69;72.62
10652;BME280;5374;42.742;23.266;2024-03-29T03:12:36;95427.09;;;9.63;72.34
10652;BME280;5374;42.742;23.266;2024-03-29T03:15:25;95427.88;;;9.64;72.23
10652;BME280;5374;42.742;23.266;2024-03-29T03:18:13;95447.09;;;9.71;72.28
10652;BME280;5374;42.742;23.266;2024-03-29T03:21:00;95446.00;;;9.72;72.30
10652;BME280;5374;42.742;23.266;2024-03-29T03:23:46;95457.75;;;9.76;71.80
10652;BME280;5374;42.742;23.266;2024-03-29T03:26:33;95437.56;;;9.75;71.59
10652;BME280;5374;42.742;23.266;2024-03-29T03:29:19;95440.22;;;9.75;71.47
10652;BME280;5374;42.742;23.266;2024-03-29T03:32:08;95459.75;;;9.85;70.96
10652;BME280;5374;42.742;23.266;2024-03-29T03:34:54;95455.16;;;9.81;70.73
10652;BME280;5374;42.742;23.266;2024-03-29T03:37:41;95458.69;;;9.86;71.13
10652;BME280;5374;42.742;23.266;2024-03-29T03:40:27;95460.31;;;9.87;70.89
10652;BME280;5374;42.742;23.266;2024-03-29T03:43:14;95447.09;;;9.71;70.74
10652;BME280;5374;42.742;23.266;2024-03-29T03:46:01;95483.94;;;9.89;70.64
10652;BME280;5374;42.742;23.266;2024-03-29T03:48:49;95481.28;;;9.89;70.67
10652;BME280;5374;42.742;23.266;2024-03-29T03:51:36;95478.78;;;9.82;70.87
10652;BME280;5374;42.742;23.266;2024-03-29T03:54:23;95497.75;;;9.91;70.62
10652;BME280;5374;42.742;23.266;2024-03-29T03:57:09;95496.72;;;9.92;70.39
10652;BME280;5374;42.742;23.266;2024-03-29T03:59:56;95495.91;;;9.91;70.32
10652;BME280;5374;42.742;23.266;2024-03-29T04:02:42;95500.16;;;9.92;70.02
10652;BME280;5374;42.742;23.266;2024-03-29T04:05:36;95482.72;;;9.80;69.58
10652;BME280;5374;42.742;23.266;2024-03-29T04:08:23;95508.41;;;9.96;69.66
10652;BME280;5374;42.742;23.266;2024-03-29T04:11:10;95514.75;;;9.95;69.73
10652;BME280;5374;42.742;23.266;2024-03-29T04:13:56;95509.66;;;9.88;69.34
10652;BME280;5374;42.742;23.266;2024-03-29T04:16:43;95528.09;;;10.00;69.44
10652;BME280;5374;42.742;23.266;2024-03-29T04:19:29;95517.50;;;10.00;69.48
10652;BME280;5374;42.742;23.266;2024-03-29T04:22:18;95523.59;;;10.01;69.36
10652;BME280;5374;42.742;23.266;2024-03-29T04:25:04;95537.19;;;10.04;69.30
10652;BME280;5374;42.742;23.266;2024-03-29T04:27:51;95536.63;;;10.02;69.00
10652;BME280;5374;42.742;23.266;2024-03-29T04:30:37;95535.19;;;9.94;69.31
10652;BME280;5374;42.742;23.266;2024-03-29T04:33:25;95568.88;;;10.11;69.30
10652;BME280;5374;42.742;23.266;2024-03-29T04:36:11;95569.09;;;10.09;69.42
10652;BME280;5374;42.742;23.266;2024-03-29T04:38:59;95570.25;;;10.13;69.70
10652;BME280;5374;42.742;23.266;2024-03-29T04:41:46;95563.56;;;10.11;69.60
10652;BME280;5374;42.742;23.266;2024-03-29T04:44:34;95584.75;;;10.44;69.40
10652;BME280;5374;42.742;23.266;2024-03-29T04:47:21;95577.66;;;10.50;69.49
10652;BME280;5374;42.742;23.266;2024-03-29T04:50:09;95590.53;;;10.58;69.38
10652;BME280;5374;42.742;23.266;2024-03-29T04:52:56;95568.50;;;10.41;69.46
10652;BME280;5374;42.742;23.266;2024-03-29T04:55:45;95584.50;;;10.46;69.71
10652;BME280;5374;42.742;23.266;2024-03-29T04:58:33;95598.06;;;10.66;69.06
10652;BME280;5374;42.742;23.266;2024-03-29T05:01:21;95576.56;;;10.68;68.87
10652;BME280;5374;42.742;23.266;2024-03-29T05:04:08;95596.53;;;10.92;68.16
10652;BME280;5374;42.742;23.266;2024-03-29T05:06:55;95596.44;;;12.16;64.78
10652;BME280;5374;42.742;23.266;2024-03-29T05:09:43;95605.44;;;16.16;52.67
10652;BME280;5374;42.742;23.266;2024-03-29T05:12:32;95595.66;;;19.94;43.29
10652;BME280;5374;42.742;23.266;2024-03-29T05:15:19;95599.72;;;22.81;36.94
10652;BME280;5374;42.742;23.266;2024-03-29T05:18:06;95621.41;;;25.27;32.35
10652;BME280;5374;42.742;23.266;2024-03-29T05:20:54;95630.09;;;27.17;30.31
10652;BME280;5374;42.742;23.266;2024-03-29T05:23:41;95626.50;;;28.66;27.81
10652;BME280;5374;42.742;23.266;2024-03-29T05:26:28;95641.91;;;30.41;25.72
10652;BME280;5374;42.742;23.266;2024-03-29T05:29:17;95647.06;;;31.50;24.26
10652;BME280;5374;42.742;23.266;2024-03-29T05:32:05;95627.19;;;32.18;23.23
10652;BME280;5374;42.742;23.266;2024-03-29T05:34:52;95652.84;;;33.91;22.01
10652;BME280;5374;42.742;23.266;2024-03-29T05:37:39;95657.25;;;35.70;20.27
10652;BME280;5374;42.742;23.266;2024-03-29T05:40:26;95663.75;;;37.10;18.86
10652;BME280;5374;42.742;23.266;2024-03-29T05:43:13;95647.75;;;38.02;18.53
10652;BME280;5374;42.742;23.266;2024-03-29T05:46:02;95649.34;;;39.25;17.84
10652;BME280;5374;42.742;23.266;2024-03-29T05:48:49;95646.97;;;40.54;16.45
10652;BME280;5374;42.742;23.266;2024-03-29T05:51:36;95655.69;;;41.77;15.64
10652;BME280;5374;42.742;23.266;2024-03-29T05:54:23;95654.94;;;42.93;14.99
10652;BME280;5374;42.742;23.266;2024-03-29T05:57:10;95652.25;;;43.20;15.01
10652;BME280;5374;42.742;23.266;2024-03-29T05:59:58;95652.59;;;43.93;14.43
10652;BME280;5374;42.742;23.266;2024-03-29T06:02:46;95625.94;;;44.47;14.16
10652;BME280;5374;42.742;23.266;2024-03-29T06:05:34;95628.34;;;45.09;14.61
10652;BME280;5374;42.742;23.266;2024-03-29T06:08:21;95624.13;;;45.89;13.63
10652;BME280;5374;42.742;23.266;2024-03-29T06:11:11;95625.72;;;46.38;13.05
10652;BME280;5374;42.742;23.266;2024-03-29T06:13:58;95614.75;;;46.78;13.30
10652;BME280;5374;42.742;23.266;2024-03-29T06:17:03;95615.75;;;47.19;12.86
10652;BME280;5374;42.742;23.266;2024-03-29T06:20:09;95607.72;;;47.97;12.59
10652;BME280;5374;42.742;23.266;2024-03-29T06:22:56;95616.53;;;48.45;12.48
10652;BME280;5374;42.742;23.266;2024-03-29T06:25:44;95607.28;;;48.65;12.45
10652;BME280;5374;42.742;23.266;2024-03-29T06:28:31;95618.78;;;48.41;12.21
10652;BME280;5374;42.742;23.266;2024-03-29T06:31:18;95612.09;;;47.98;12.43
10652;BME280;5374;42.742;23.266;2024-03-29T06:34:05;95599.19;;;47.91;11.94
10652;BME280;5374;42.742;23.266;2024-03-29T06:36:54;95607.41;;;47.10;12.93
10652;BME280;5374;42.742;23.266;2024-03-29T06:39:41;95613.88;;;46.10;13.30
10652;BME280;5374;42.742;23.266;2024-03-29T06:42:29;95618.13;;;44.60;13.37
10652;BME280;5374;42.742;23.266;2024-03-29T06:45:17;95619.63;;;42.86;14.71
10652;BME280;5374;42.742;23.266;2024-03-29T06:48:04;95598.78;;;41.11;15.68
10652;BME280;5374;42.742;23.266;2024-03-29T06:50:51;95611.16;;;39.46;16.48
10652;BME280;5374;42.742;23.266;2024-03-29T06:53:40;95614.00;;;37.57;18.00
10652;BME280;5374;42.742;23.266;2024-03-29T06:56:27;95603.94;;;36.55;18.82
10652;BME280;5374;42.742;23.266;2024-03-29T06:59:15;95615.47;;;35.68;19.26
10652;BME280;5374;42.742;23.266;2024-03-29T07:02:03;95615.66;;;34.70;20.00
10652;BME280;5374;42.742;23.266;2024-03-29T07:04:52;95619.78;;;33.52;21.04
10652;BME280;5374;42.742;23.266;2024-03-29T07:07:39;95621.16;;;32.68;21.37
10652;BME280;5374;42.742;23.266;2024-03-29T07:10:27;95621.69;;;32.18;23.45
10652;BME280;5374;42.742;23.266;2024-03-29T07:13:16;95621.59;;;31.53;23.03
10652;BME280;5374;42.742;23.266;2024-03-29T07:16:04;95635.84;;;30.88;23.57
10652;BME280;5374;42.742;23.266;2024-03-29T07:18:52;95636.69;;;29.76;24.68
10652;BME280;5374;42.742;23.266;2024-03-29T07:21:39;95637.31;;;29.43;25.57
10652;BME280;5374;42.742;23.266;2024-03-29T07:24:26;95622.22;;;29.30;26.85
10652;BME280;5374;42.742;23.266;2024-03-29T07:27:15;95635.25;;;28.75;25.55
10652;BME280;5374;42.742;23.266;2024-03-29T07:30:04;95627.84;;;28.37;25.79
10652;BME280;5374;42.742;23.266;2024-03-29T07:32:53;95619.97;;;28.16;26.89
10652;BME280;5374;42.742;23.266;2024-03-29T07:35:40;95631.63;;;28.13;26.98
10652;BME280;5374;42.742;23.266;2024-03-29T07:38:29;95623.31;;;27.90;27.02
10652;BME280;5374;42.742;23.266;2024-03-29T07:41:16;95605.75;;;27.72;27.24
10652;BME280;5374;42.742;23.266;2024-03-29T07:44:04;95612.09;;;27.60;27.90
10652;BME280;5374;42.742;23.266;2024-03-29T07:46:53;95622.75;;;27.34;28.47
10652;BME280;5374;42.742;23.266;2024-03-29T07:49:41;95620.69;;;27.15;28.56
10652;BME280;5374;42.742;23.266;2024-03-29T07:52:28;95613.41;;;27.03;28.70
10652;BME280;5374;42.742;23.266;2024-03-29T07:55:16;95627.38;;;26.74;29.02
10652;BME280;5374;42.742;23.266;2024-03-29T07:58:04;95628.09;;;26.43;29.08
10652;BME280;5374;42.742;23.266;2024-03-29T08:00:53;95623.13;;;26.61;29.69
10652;BME280;5374;42.742;23.266;2024-03-29T08:03:40;95617.88;;;26.68;28.66
10652;BME280;5374;42.742;23.266;2024-03-29T08:06:27;95614.22;;;26.48;29.71
10652;BME280;5374;42.742;23.266;2024-03-29T08:09:14;95620.06;;;26.62;29.52
10652;BME280;5374;42.742;23.266;2024-03-29T08:12:01;95607.84;;;26.56;29.61
10652;BME280;5374;42.742;23.266;2024-03-29T08:14:48;95598.03;;;26.39;30.48
10652;BME280;5374;42.742;23.266;2024-03-29T08:17:37;95610.75;;;26.23;29.96
10652;BME280;5374;42.742;23.266;2024-03-29T08:20:24;95607.56;;;26.21;30.06
10652;BME280;5374;42.742;23.266;2024-03-29T08:23:15;95587.66;;;26.17;30.64
10652;BME280;5374;42.742;23.266;2024-03-29T08:26:02;95594.94;;;26.01;30.65
10652;BME280;5374;42.742;23.266;2024-03-29T08:28:49;95590.22;;;25.61;30.38
10652;BME280;5374;42.742;23.266;2024-03-29T08:31:37;95579.44;;;25.77;31.95
10652;BME280;5374;42.742;23.266;2024-03-29T08:34:25;95584.53;;;25.91;31.52
10652;BME280;5374;42.742;23.266;2024-03-29T08:37:13;95583.66;;;25.62;30.90
10652;BME280;5374;42.742;23.266;2024-03-29T08:40:01;95577.34;;;25.70;29.92
10652;BME280;5374;42.742;23.266;2024-03-29T08:42:48;95582.28;;;25.93;29.90
10652;BME280;5374;42.742;23.266;2024-03-29T08:45:35;95565.72;;;25.98;31.50
10652;BME280;5374;42.742;23.266;2024-03-29T08:48:26;95573.38;;;26.08;30.12
10652;BME280;5374;42.742;23.266;2024-03-29T08:51:15;95559.72;;;25.92;29.61
10652;BME280;5374;42.742;23.266;2024-03-29T08:54:02;95574.84;;;26.05;30.02
10652;BME280;5374;42.742;23.266;2024-03-29T08:56:50;95569.13;;;26.22;30.34
10652;BME280;5374;42.742;23.266;2024-03-29T08:59:38;95556.59;;;26.06;31.21
10652;BME280;5374;42.742;23.266;2024-03-29T09:02:25;95556.66;;;25.94;30.71
10652;BME280;5374;42.742;23.266;2024-03-29T09:05:12;95559.09;;;25.99;31.13
10652;BME280;5374;42.742;23.266;2024-03-29T09:08:00;95551.16;;;26.06;30.24
10652;BME280;5374;42.742;23.266;2024-03-29T09:10:47;95551.75;;;26.39;31.25
10652;BME280;5374;42.742;23.266;2024-03-29T09:13:35;95552.44;;;26.24;30.02
10652;BME280;5374;42.742;23.266;2024-03-29T09:16:22;95540.84;;;26.39;30.70
10652;BME280;5374;42.742;23.266;2024-03-29T09:19:09;95538.81;;;26.36;30.11
10652;BME280;5374;42.742;23.266;2024-03-29T09:21:56;95543.69;;;26.59;30.01
10652;BME280;5374;42.742;23.266;2024-03-29T09:24:44;95541.00;;;26.46;28.84
10652;BME280;5374;42.742;23.266;2024-03-29T09:27:32;95533.47;;;26.28;29.91
10652;BME280;5374;42.742;23.266;2024-03-29T09:30:22;95525.66;;;26.26;27.72
10652;BME280;5374;42.742;23.266;2024-03-29T09:33:09;95520.44;;;26.33;28.59
10652;BME280;5374;42.742;23.266;2024-03-29T09:35:56;95516.13;;;26.32;29.41
10652;BME280;5374;42.742;23.266;2024-03-29T09:38:44;95514.66;;;26.35;28.09
10652;BME280;5374;42.742;23.266;2024-03-29T09:41:32;95518.53;;;26.21;29.78
10652;BME280;5374;42.742;23.266;2024-03-29T09:44:23;95497.25;;;26.11;29.62
10652;BME280;5374;42.742;23.266;2024-03-29T09:47:14;95502.34;;;26.13;27.72
10652;BME280;5374;42.742;23.266;2024-03-29T09:50:03;95481.50;;;26.05;29.64
10652;BME280;5374;42.742;23.266;2024-03-29T09:52:50;95493.88;;;26.02;28.06
10652;BME280;5374;42.742;23.266;2024-03-29T09:55:39;95477.84;;;26.13;29.66
10652;BME280;5374;42.742;23.266;2024-03-29T09:58:28;95479.69;;;26.09;29.83
10652;BME280;5374;42.742;23.266;2024-03-29T10:01:15;95485.47;;;26.07;30.04
10652;BME280;5374;42.742;23.266;2024-03-29T10:04:03;95477.16;;;25.88;28.11
10652;BME280;5374;42.742;23.266;2024-03-29T10:06:52;95476.25;;;25.96;29.77
10652;BME280;5374;42.742;23.266;2024-03-29T10:09:40;95473.88;;;25.95;29.87
10652;BME280;5374;42.742;23.266;2024-03-29T10:12:28;95473.78;;;25.79;28.59
10652;BME280;5374;42.742;23.266;2024-03-29T10:15:16;95445.22;;;25.85;28.00
10652;BME280;5374;42.742;23.266;2024-03-29T10:18:09;95457.53;;;25.95;27.68
10652;BME280;5374;42.742;23.266;2024-03-29T10:21:00;95473.75;;;25.39;28.42
10652;BME280;5374;42.742;23.266;2024-03-29T10:23:47;95482.41;;;25.29;29.28
10652;BME280;5374;42.742;23.266;2024-03-29T10:26:37;95470.38;;;25.42;31.84
10652;BME280;5374;42.742;23.266;2024-03-29T10:29:27;95468.75;;;25.65;30.33
10652;BME280;5374;42.742;23.266;2024-03-29T10:32:17;95470.78;;;25.68;28.66
10652;BME280;5374;42.742;23.266;2024-03-29T10:35:05;95471.34;;;25.74;28.22
10652;BME280;5374;42.742;23.266;2024-03-29T10:37:53;95467.03;;;25.61;28.68
10652;BME280;5374;42.742;23.266;2024-03-29T10:40:41;95450.69;;;25.20;28.78
10652;BME280;5374;42.742;23.266;2024-03-29T10:43:28;95454.16;;;25.45;30.56
10652;BME280;5374;42.742;23.266;2024-03-29T10:46:16;95456.28;;;25.64;30.97
10652;BME280;5374;42.742;23.266;2024-03-29T10:49:08;95446.06;;;25.61;28.51
10652;BME280;5374;42.742;23.266;2024-03-29T10:51:57;95390.91;;;25.20;29.37
10652;BME280;5374;42.742;23.266;2024-03-29T10:54:46;95422.69;;;25.32;28.65
10652;BME280;5374;42.742;23.266;2024-03-29T10:57:34;95427.66;;;25.42;30.04
10652;BME280;5374;42.742;23.266;2024-03-29T11:00:24;95434.19;;;25.53;30.30
10652;BME280;5374;42.742;23.266;2024-03-29T11:03:14;95438.78;;;25.77;32.20
10652;BME280;5374;42.742;23.266;2024-03-29T11:06:05;95439.53;;;25.90;31.14
10652;BME280;5374;42.742;23.266;2024-03-29T11:08:54;95401.03;;;25.76;30.34
10652;BME280;5374;42.742;23.266;2024-03-29T11:11:47;95438.63;;;26.14;29.49
10652;BME280;5374;42.742;23.266;2024-03-29T11:14:40;95435.00;;;26.10;29.99
10652;BME280;5374;42.742;23.266;2024-03-29T11:17:29;95438.84;;;26.09;29.01
10652;BME280;5374;42.742;23.266;2024-03-29T11:20:17;95431.81;;;25.92;29.05
10652;BME280;5374;42.742;23.266;2024-03-29T11:23:12;95440.31;;;25.91;28.71
10652;BME280;5374;42.742;23.266;2024-03-29T11:26:01;95416.13;;;25.73;29.35
10652;BME280;5374;42.742;23.266;2024-03-29T11:28:49;95422.41;;;25.89;29.06
10652;BME280;5374;42.742;23.266;2024-03-29T11:31:38;95427.31;;;25.32;30.08
10652;BME280;5374;42.742;23.266;2024-03-29T11:34:25;95425.94;;;25.50;29.98
10652;BME280;5374;42.742;23.266;2024-03-29T11:37:17;95420.75;;;25.45;30.47
10652;BME280;5374;42.742;23.266;2024-03-29T11:40:10;95415.25;;;25.57;32.29
10652;BME280;5374;42.742;23.266;2024-03-29T11:42:58;95429.41;;;25.75;30.97
10652;BME280;5374;42.742;23.266;2024-03-29T11:45:48;95420.63;;;25.81;31.24
10652;BME280;5374;42.742;23.266;2024-03-29T11:48:38;95417.66;;;25.86;31.06
10652;BME280;5374;42.742;23.266;2024-03-29T11:51:25;95410.38;;;25.91;29.25
10652;BME280;5374;42.742;23.266;2024-03-29T11:54:13;95410.63;;;25.85;29.19
10652;BME280;5374;42.742;23.266;2024-03-29T11:57:03;95401.75;;;25.61;29.84
10652;BME280;5374;42.742;23.266;2024-03-29T11:59:50;95401.81;;;25.76;30.81
10652;BME280;5374;42.742;23.266;2024-03-29T12:02:39;95400.28;;;25.91;30.97
10652;BME280;5374;42.742;23.266;2024-03-29T12:05:26;95406.97;;;25.94;29.95
10652;BME280;5374;42.742;23.266;2024-03-29T12:08:13;95399.94;;;25.93;31.29
10652;BME280;5374;42.742;23.266;2024-03-29T12:11:02;95400.50;;;26.14;29.52
10652;BME280;5374;42.742;23.266;2024-03-29T12:13:51;95398.72;;;26.21;28.86
10652;BME280;5374;42.742;23.266;2024-03-29T12:16:43;95395.66;;;26.23;28.92
10652;BME280;5374;42.742;23.266;2024-03-29T12:19:30;95393.59;;;25.88;28.87
10652;BME280;5374;42.742;23.266;2024-03-29T12:22:18;95387.78;;;25.74;29.75
10652;BME280;5374;42.742;23.266;2024-03-29T12:25:07;95388.22;;;25.76;31.15
10652;BME280;5374;42.742;23.266;2024-03-29T12:27:58;95382.34;;;25.74;30.34
10652;BME280;5374;42.742;23.266;2024-03-29T12:30:48;95362.34;;;25.82;29.27
10652;BME280;5374;42.742;23.266;2024-03-29T12:33:35;95372.75;;;26.08;29.08
10652;BME280;5374;42.742;23.266;2024-03-29T12:36:25;95387.16;;;26.24;27.88
10652;BME280;5374;42.742;23.266;2024-03-29T12:39:13;95380.13;;;26.23;27.11
10652;BME280;5374;42.742;23.266;2024-03-29T12:42:01;95384.28;;;26.33;27.29
10652;BME280;5374;42.742;23.266;2024-03-29T12:44:48;95384.47;;;26.40;27.15
10652;BME280;5374;42.742;23.266;2024-03-29T12:47:37;95379.97;;;26.48;26.79
10652;BME280;5374;42.742;23.266;2024-03-29T12:50:25;95374.59;;;26.51;27.46
10652;BME280;5374;42.742;23.266;2024-03-29T12:53:14;95363.38;;;26.53;26.59
10652;BME280;5374;42.742;23.266;2024-03-29T12:56:01;95375.84;;;26.38;26.31
10652;BME280;5374;42.742;23.266;2024-03-29T12:58:48;95364.09;;;26.34;26.30
10652;BME280;5374;42.742;23.266;2024-03-29T13:01:36;95368.19;;;26.28;26.74
10652;BME280;5374;42.742;23.266;2024-03-29T13:04:25;95365.94;;;26.30;26.62
10652;BME280;5374;42.742;23.266;2024-03-29T13:07:12;95362.94;;;26.35;25.30
10652;BME280;5374;42.742;23.266;2024-03-29T13:10:01;95362.00;;;26.43;25.95
10652;BME280;5374;42.742;23.266;2024-03-29T13:12:56;95338.00;;;26.33;25.69
10652;BME280;5374;42.742;23.266;2024-03-29T13:15:43;95346.34;;;26.40;25.18
10652;BME280;5374;42.742;23.266;2024-03-29T13:18:33;95362.69;;;26.40;26.99
10652;BME280;5374;42.742;23.266;2024-03-29T13:21:21;95374.88;;;26.31;26.21
10652;BME280;5374;42.742;23.266;2024-03-29T13:24:08;95356.41;;;26.24;25.63
10652;BME280;5374;42.742;23.266;2024-03-29T13:26:56;95353.34;;;26.10;26.02
10652;BME280;5374;42.742;23.266;2024-03-29T13:29:43;95358.44;;;26.11;25.86
10652;BME280;5374;42.742;23.266;2024-03-29T13:32:30;95355.63;;;26.08;25.33
10652;BME280;5374;42.742;23.266;2024-03-29T13:35:19;95358.88;;;25.98;25.42
10652;BME280;5374;42.742;23.266;2024-03-29T13:38:08;95361.59;;;25.98;25.86
10652;BME280;5374;42.742;23.266;2024-03-29T13:40:56;95358.59;;;26.03;25.65
10652;BME280;5374;42.742;23.266;2024-03-29T13:43:43;95341.03;;;25.84;25.27
10652;BME280;5374;42.742;23.266;2024-03-29T13:46:31;95348.13;;;25.89;25.62
10652;BME280;5374;42.742;23.266;2024-03-29T13:49:18;95355.66;;;25.80;25.41
10652;BME280;5374;42.742;23.266;2024-03-29T13:52:06;95358.59;;;25.87;25.12
10652;BME280;5374;42.742;23.266;2024-03-29T13:54:55;95344.00;;;25.79;24.75
10652;BME280;5374;42.742;23.266;2024-03-29T13:57:42;95353.63;;;25.77;25.61
10652;BME280;5374;42.742;23.266;2024-03-29T14:00:30;95344.41;;;25.66;26.32
10652;BME280;5374;42.742;23.266;2024-03-29T14:03:18;95343.41;;;25.58;26.22
10652;BME280;5374;42.742;23.266;2024-03-29T14:06:05;95349.06;;;25.53;26.96
10652;BME280;5374;42.742;23.266;2024-03-29T14:08:53;95339.78;;;25.54;25.54
10652;BME280;5374;42.742;23.266;2024-03-29T14:11:41;95342.50;;;25.54;26.62
10652;BME280;5374;42.742;23.266;2024-03-29T14:14:29;95330.56;;;25.43;26.39
10652;BME280;5374;42.742;23.266;2024-03-29T14:17:16;95342.13;;;25.40;25.67
10652;BME280;5374;42.742;23.266;2024-03-29T14:20:04;95344.13;;;25.15;24.78
10652;BME280;5374;42.742;23.266;2024-03-29T14:22:52;95341.31;;;25.11;24.84
10652;BME280;5374;42.742;23.266;2024-03-29T14:25:42;95337.28;;;25.05;26.67
10652;BME280;5374;42.742;23.266;2024-03-29T14:28:31;95335.69;;;24.92;26.64
10652;BME280;5374;42.742;23.266;2024-03-29T14:31:18;95336.47;;;24.93;26.38
10652;BME280;5374;42.742;23.266;2024-03-29T14:34:05;95333.53;;;24.98;26.25
10652;BME280;5374;42.742;23.266;2024-03-29T14:36:52;95339.31;;;24.96;27.59
10652;BME280;5374;42.742;23.266;2024-03-29T14:39:42;95332.97;;;24.92;28.43
10652;BME280;5374;42.742;23.266;2024-03-29T14:42:29;95331.53;;;24.82;29.74
10652;BME280;5374;42.742;23.266;2024-03-29T14:45:18;95327.56;;;24.80;29.41
10652;BME280;5374;42.742;23.266;2024-03-29T14:48:06;95324.84;;;24.80;29.49
10652;BME280;5374;42.742;23.266;2024-03-29T14:50:53;95318.63;;;24.79;29.28